createdAt,value
2019-04-30T00:00:06.245Z,39.63
2019-04-30T00:02:40.059Z,36.87
2019-04-30T00:05:10.026Z,38.27
2019-04-30T00:07:40.763Z,37.43
2019-04-30T00:10:10.257Z,36.77
2019-04-30T00:12:39.791Z,37.83
2019-04-30T00:15:10.887Z,37.73
2019-04-30T00:17:40.265Z,37.10
2019-04-30T00:20:09.952Z,36.50
2019-04-30T00:22:46.532Z,38.03
2019-04-30T00:25:10.318Z,38.63
2019-04-30T00:27:39.663Z,39.17
2019-04-30T00:30:09.282Z,38.50
2019-04-30T00:32:43.500Z,40.60
2019-04-30T00:35:11.900Z,40.13
2019-04-30T00:37:40.969Z,37.10
2019-04-30T00:40:10.291Z,38.97
2019-04-30T00:42:39.382Z,40.10
2019-04-30T00:45:10.165Z,38.60
2019-04-30T00:47:43.690Z,36.23
2019-04-30T00:50:11.140Z,35.80
2019-04-30T00:52:40.357Z,37.67
2019-04-30T00:55:09.937Z,39.10
2019-04-30T00:57:43.817Z,41.03
2019-04-30T01:00:12.617Z,46.40
2019-04-30T01:02:55.576Z,45.43
2019-04-30T01:05:26.955Z,44.83
2019-04-30T01:07:56.608Z,41.23
2019-04-30T01:10:28.346Z,41.33
2019-04-30T01:12:59.870Z,41.33
2019-04-30T01:15:29.168Z,42.37
2019-04-30T01:17:59.392Z,37.17
2019-04-30T01:20:32.664Z,37.93
2019-04-30T01:23:03.014Z,36.73
2019-04-30T01:25:31.576Z,39.10
2019-04-30T01:28:01.608Z,38.00
2019-04-30T01:30:30.926Z,36.70
2019-04-30T01:33:01.060Z,40.00
2019-04-30T01:35:32.714Z,33.80
2019-04-30T01:38:04.069Z,35.93
2019-04-30T01:40:32.452Z,33.80
2019-04-30T01:43:01.751Z,37.67
2019-04-30T01:45:31.709Z,36.03
2019-04-30T01:48:08.614Z,37.53
2019-04-30T01:50:33.795Z,35.40
2019-04-30T01:53:04.856Z,35.20
2019-04-30T01:55:42.249Z,36.60
2019-04-30T01:58:29.947Z,34.63
2019-04-30T02:01:00.381Z,36.63
2019-04-30T02:03:30.071Z,38.97
2019-04-30T02:05:59.712Z,35.70
2019-04-30T02:08:29.543Z,38.80
2019-04-30T02:10:59.428Z,35.33
2019-04-30T02:13:29.462Z,33.27
2019-04-30T02:15:59.807Z,34.87
2019-04-30T02:18:29.598Z,32.30
2019-04-30T02:20:59.450Z,33.33
2019-04-30T02:23:29.700Z,37.40
2019-04-30T02:25:59.380Z,33.83
2019-04-30T02:28:29.094Z,35.73
2019-04-30T02:31:00.309Z,34.77
2019-04-30T02:33:30.920Z,34.93
2019-04-30T02:36:22.466Z,32.50
2019-04-30T02:38:54.577Z,33.23
2019-04-30T02:41:24.918Z,33.03
2019-04-30T02:43:55.681Z,32.27
2019-04-30T02:46:31.962Z,32.20
2019-04-30T02:48:59.829Z,33.77
2019-04-30T02:51:30.069Z,36.37
2019-04-30T02:54:04.635Z,35.47
2019-04-30T02:56:34.668Z,34.47
2019-04-30T02:59:04.592Z,35.03
2019-04-30T03:01:33.772Z,32.47
2019-04-30T03:04:03.187Z,35.40
2019-04-30T03:06:35.171Z,36.80
2019-04-30T03:09:10.758Z,35.77
2019-04-30T03:11:40.910Z,32.97
2019-04-30T03:14:10.834Z,36.50
2019-04-30T03:16:52.701Z,35.03
2019-04-30T03:19:29.342Z,37.17
2019-04-30T03:22:05.144Z,34.50
2019-04-30T03:24:34.713Z,35.57
2019-04-30T03:27:04.107Z,34.33
2019-04-30T03:29:33.391Z,33.17
2019-04-30T03:32:03.724Z,35.57
2019-04-30T03:34:33.402Z,34.07
2019-04-30T03:37:03.092Z,36.07
2019-04-30T03:39:33.940Z,35.73
2019-04-30T03:42:03.409Z,35.40
2019-04-30T03:44:32.876Z,34.73
2019-04-30T03:47:02.757Z,31.77
2019-04-30T03:49:32.456Z,36.80
2019-04-30T03:52:01.866Z,37.37
2019-04-30T03:54:31.242Z,33.90
2019-04-30T03:57:01.161Z,31.07
2019-04-30T03:59:30.493Z,38.00
2019-04-30T04:02:20.834Z,39.10
2019-04-30T04:05:15.037Z,40.93
2019-04-30T04:07:49.856Z,37.93
2019-04-30T04:10:56.955Z,35.10
2019-04-30T04:13:26.348Z,39.40
2019-04-30T04:15:55.550Z,42.87
2019-04-30T04:18:24.999Z,40.23
2019-04-30T04:21:07.408Z,40.10
2019-04-30T04:23:25.068Z,44.07
2019-04-30T04:25:54.615Z,42.73
2019-04-30T04:28:23.788Z,41.37
2019-04-30T04:30:53.021Z,40.67
2019-04-30T04:33:22.379Z,39.37
2019-04-30T04:35:52.009Z,37.37
2019-04-30T04:38:21.678Z,40.80
2019-04-30T04:40:51.141Z,36.87
2019-04-30T04:43:20.510Z,39.10
2019-04-30T04:45:50.103Z,38.40
2019-04-30T04:48:23.039Z,37.17
2019-04-30T04:50:50.859Z,37.83
2019-04-30T04:53:20.150Z,35.93
2019-04-30T04:55:49.995Z,38.67
2019-04-30T04:58:21.698Z,36.03
2019-04-30T05:00:50.300Z,38.50
2019-04-30T05:03:49.001Z,37.77
2019-04-30T05:06:22.012Z,37.53
2019-04-30T05:08:49.679Z,38.50
2019-04-30T05:11:19.271Z,39.97
2019-04-30T05:13:48.974Z,39.60
2019-04-30T05:16:19.062Z,38.53
2019-04-30T05:18:48.926Z,37.73
2019-04-30T05:21:18.945Z,36.03
2019-04-30T05:23:49.288Z,36.97
2019-04-30T05:26:19.191Z,37.93
2019-04-30T05:28:51.150Z,36.87
2019-04-30T05:31:21.102Z,36.77
2019-04-30T05:33:53.801Z,36.70
2019-04-30T05:36:23.182Z,37.07
2019-04-30T05:38:52.470Z,35.53
2019-04-30T05:41:22.011Z,35.73
2019-04-30T05:43:51.473Z,34.50
2019-04-30T05:46:21.054Z,34.33
2019-04-30T05:48:52.059Z,35.87
2019-04-30T05:51:21.444Z,34.20
2019-04-30T05:53:51.050Z,33.90
2019-04-30T05:56:20.428Z,33.93
2019-04-30T05:58:49.852Z,33.07
2019-04-30T06:01:24.194Z,31.27
2019-04-30T06:03:54.018Z,31.87
2019-04-30T06:06:23.701Z,30.70
2019-04-30T06:09:06.171Z,31.30
2019-04-30T06:11:50.976Z,32.00
2019-04-30T06:14:25.464Z,30.73
2019-04-30T06:17:09.754Z,30.83
2019-04-30T06:19:39.497Z,30.77
2019-04-30T06:22:10.954Z,29.43
2019-04-30T06:24:40.070Z,31.13
2019-04-30T06:27:12.763Z,29.27
2019-04-30T06:29:41.957Z,29.27
2019-04-30T06:32:11.262Z,30.27
2019-04-30T06:34:42.017Z,29.67
2019-04-30T06:37:11.676Z,30.30
2019-04-30T06:39:41.150Z,29.27
2019-04-30T06:42:12.761Z,27.23
2019-04-30T06:44:41.974Z,27.93
2019-04-30T06:47:11.482Z,28.20
2019-04-30T06:49:41.114Z,28.33
2019-04-30T06:52:19.925Z,28.47
2019-04-30T06:54:41.919Z,25.73
2019-04-30T06:57:12.097Z,24.70
2019-04-30T06:59:41.591Z,24.83
2019-04-30T07:02:10.916Z,22.37
2019-04-30T07:04:40.294Z,23.67
2019-04-30T07:07:09.951Z,22.47
2019-04-30T07:10:01.233Z,23.87
2019-04-30T07:13:04.798Z,23.77
2019-04-30T07:15:34.079Z,22.77
2019-04-30T07:18:03.460Z,22.57
2019-04-30T07:20:34.129Z,23.60
2019-04-30T07:23:03.719Z,21.70
2019-04-30T07:25:32.995Z,21.23
2019-04-30T07:28:02.530Z,22.20
2019-04-30T07:30:31.714Z,21.90
2019-04-30T07:33:01.052Z,22.17
2019-04-30T07:35:30.165Z,21.43
2019-04-30T07:38:04.820Z,23.60
2019-04-30T07:40:33.008Z,23.17
2019-04-30T07:43:02.506Z,22.50
2019-04-30T07:45:32.321Z,22.10
2019-04-30T07:48:01.727Z,22.93
2019-04-30T07:50:31.672Z,22.70
2019-04-30T07:53:05.735Z,23.13
2019-04-30T07:55:32.351Z,23.50
2019-04-30T07:58:01.567Z,24.30
2019-04-30T08:00:31.268Z,22.10
2019-04-30T08:03:07.303Z,22.27
2019-04-30T08:05:41.160Z,22.90
2019-04-30T08:08:21.067Z,22.00
2019-04-30T08:10:41.986Z,21.83
2019-04-30T08:13:15.136Z,20.93
2019-04-30T08:15:42.924Z,23.27
2019-04-30T08:18:12.362Z,21.47
2019-04-30T08:20:42.299Z,23.73
2019-04-30T08:23:17.340Z,22.87
2019-04-30T08:25:42.660Z,21.93
2019-04-30T08:28:11.782Z,22.17
2019-04-30T08:30:41.090Z,20.63
2019-04-30T08:33:10.623Z,21.43
2019-04-30T08:35:39.994Z,21.33
2019-04-30T08:38:10.840Z,21.53
2019-04-30T08:40:53.367Z,21.27
2019-04-30T08:43:12.036Z,22.83
2019-04-30T08:45:41.434Z,22.20
2019-04-30T08:48:10.992Z,22.60
2019-04-30T08:50:40.365Z,21.57
2019-04-30T08:53:10.923Z,20.80
2019-04-30T08:55:40.695Z,16.37
2019-04-30T08:58:14.861Z,17.67
2019-04-30T09:00:41.343Z,17.87
2019-04-30T09:03:10.396Z,15.57
2019-04-30T09:05:58.968Z,16.63
2019-04-30T09:08:29.415Z,15.50
2019-04-30T09:10:59.555Z,16.40
2019-04-30T09:13:28.848Z,15.33
2019-04-30T09:15:59.336Z,16.63
2019-04-30T09:18:29.189Z,18.00
2019-04-30T09:21:06.085Z,17.63
2019-04-30T09:23:43.318Z,16.73
2019-04-30T09:26:02.191Z,17.47
2019-04-30T09:28:31.831Z,18.83
2019-04-30T09:31:00.976Z,15.13
2019-04-30T09:33:30.876Z,15.60
2019-04-30T09:36:00.449Z,17.17
2019-04-30T09:38:30.887Z,16.50
2019-04-30T09:40:59.966Z,17.10
2019-04-30T09:43:29.478Z,17.10
2019-04-30T09:45:59.342Z,17.17
2019-04-30T09:48:30.499Z,15.90
2019-04-30T09:51:01.073Z,16.50
2019-04-30T09:53:31.648Z,17.70
2019-04-30T09:56:01.686Z,17.90
2019-04-30T09:58:31.045Z,16.13
2019-04-30T10:01:03.271Z,16.47
2019-04-30T10:03:33.733Z,16.13
2019-04-30T10:06:03.525Z,15.90
2019-04-30T10:08:32.824Z,16.73
2019-04-30T10:11:12.659Z,18.27
2019-04-30T10:13:42.458Z,18.93
2019-04-30T10:16:19.588Z,18.07
2019-04-30T10:18:49.055Z,17.23
2019-04-30T10:21:19.125Z,16.63
2019-04-30T10:23:49.896Z,17.67
2019-04-30T10:26:19.810Z,17.43
2019-04-30T10:28:50.625Z,16.83
2019-04-30T10:31:23.114Z,18.87
2019-04-30T10:33:52.794Z,18.37
2019-04-30T10:36:22.670Z,17.50
2019-04-30T10:38:52.140Z,16.70
2019-04-30T10:41:21.871Z,15.63
2019-04-30T10:43:51.265Z,15.60
2019-04-30T10:46:20.762Z,15.70
2019-04-30T10:48:50.274Z,16.33
2019-04-30T10:51:19.857Z,16.13
2019-04-30T10:53:50.926Z,15.00
2019-04-30T10:56:20.131Z,17.63
2019-04-30T10:58:49.416Z,16.97
2019-04-30T11:01:20.341Z,16.83
2019-04-30T11:03:49.443Z,15.83
2019-04-30T11:06:19.193Z,16.50
2019-04-30T11:08:48.847Z,16.87
2019-04-30T11:11:18.176Z,18.27
2019-04-30T11:13:47.823Z,17.53
2019-04-30T11:16:18.755Z,16.90
2019-04-30T11:18:48.167Z,16.10
2019-04-30T11:21:19.426Z,17.70
2019-04-30T11:23:49.439Z,15.80
2019-04-30T11:26:19.214Z,17.60
2019-04-30T11:28:49.132Z,18.20
2019-04-30T11:31:55.964Z,18.37
2019-04-30T11:34:28.037Z,16.77
2019-04-30T11:36:57.061Z,16.37
2019-04-30T11:39:26.686Z,16.20
2019-04-30T11:41:56.032Z,16.93
2019-04-30T11:44:31.060Z,16.47
2019-04-30T11:47:21.393Z,14.90
2019-04-30T11:49:50.859Z,14.83
2019-04-30T11:52:20.221Z,14.93
2019-04-30T11:54:54.149Z,16.57
2019-04-30T11:57:20.736Z,15.63
2019-04-30T11:59:49.990Z,15.43
2019-04-30T12:02:24.221Z,16.57
2019-04-30T12:04:53.798Z,15.80
2019-04-30T12:07:35.714Z,16.73
2019-04-30T12:10:19.368Z,15.97
2019-04-30T12:12:48.783Z,17.60
2019-04-30T12:15:19.220Z,17.27
2019-04-30T12:17:49.365Z,18.33
2019-04-30T12:20:19.738Z,17.43
2019-04-30T12:22:49.419Z,17.73
2019-04-30T12:25:18.885Z,16.53
2019-04-30T12:27:49.024Z,16.80
2019-04-30T12:30:20.584Z,18.50
2019-04-30T12:32:49.713Z,16.33
2019-04-30T12:35:18.900Z,16.67
2019-04-30T12:37:50.845Z,17.87
2019-04-30T12:40:28.717Z,17.33
2019-04-30T12:42:50.372Z,17.17
2019-04-30T12:45:19.884Z,16.60
2019-04-30T12:47:54.087Z,17.23
2019-04-30T12:50:41.024Z,17.63
2019-04-30T12:53:14.892Z,16.97
2019-04-30T12:56:00.356Z,16.30
2019-04-30T12:58:29.993Z,17.07
2019-04-30T13:00:59.277Z,17.27
2019-04-30T13:03:30.667Z,16.30
2019-04-30T13:06:01.325Z,16.10
2019-04-30T13:08:31.470Z,16.53
2019-04-30T13:11:01.576Z,17.57
2019-04-30T13:13:32.443Z,16.03
2019-04-30T13:16:02.312Z,17.13
2019-04-30T13:18:31.560Z,18.40
2019-04-30T13:21:00.844Z,17.37
2019-04-30T13:23:30.086Z,17.83
2019-04-30T13:26:01.063Z,17.27
2019-04-30T13:28:31.725Z,15.80
2019-04-30T13:31:01.322Z,17.73
2019-04-30T13:33:42.180Z,15.80
2019-04-30T13:36:11.491Z,15.83
2019-04-30T13:38:52.084Z,16.00
2019-04-30T13:41:50.734Z,16.93
2019-04-30T13:44:31.603Z,15.30
2019-04-30T13:47:00.588Z,15.47
2019-04-30T13:49:30.251Z,14.30
2019-04-30T13:51:59.825Z,15.17
2019-04-30T13:54:29.300Z,14.63
2019-04-30T13:56:59.385Z,15.20
2019-04-30T13:59:28.775Z,16.23
2019-04-30T14:01:58.847Z,15.77
2019-04-30T14:04:59.485Z,15.47
2019-04-30T14:07:49.693Z,14.10
2019-04-30T14:10:19.566Z,14.87
2019-04-30T14:12:54.893Z,14.93
2019-04-30T14:15:24.124Z,15.40
2019-04-30T14:17:53.441Z,15.17
2019-04-30T14:20:22.743Z,15.47
2019-04-30T14:22:52.134Z,15.23
2019-04-30T14:25:21.968Z,14.83
2019-04-30T14:27:54.502Z,15.43
2019-04-30T14:30:22.752Z,15.13
2019-04-30T14:32:52.024Z,15.80
2019-04-30T14:35:21.288Z,16.43
2019-04-30T14:37:50.571Z,14.00
2019-04-30T14:40:20.814Z,15.97
2019-04-30T14:43:10.101Z,15.10
2019-04-30T14:46:02.408Z,15.10
2019-04-30T14:48:37.823Z,16.87
2019-04-30T14:51:07.873Z,17.03
2019-04-30T14:53:58.912Z,15.43
2019-04-30T14:56:35.679Z,16.17
2019-04-30T14:59:35.882Z,16.40
2019-04-30T15:02:16.089Z,16.60
2019-04-30T15:04:45.570Z,17.50
2019-04-30T15:07:14.831Z,15.33
2019-04-30T15:09:44.191Z,15.57
2019-04-30T15:12:13.532Z,16.30
2019-04-30T15:14:42.926Z,16.03
2019-04-30T15:17:12.032Z,15.47
2019-04-30T15:19:41.169Z,17.33
2019-04-30T15:22:10.552Z,15.90
2019-04-30T15:24:39.982Z,16.10
2019-04-30T15:27:09.408Z,17.27
2019-04-30T15:29:39.307Z,16.57
2019-04-30T15:32:08.845Z,16.27
2019-04-30T15:34:40.807Z,15.63
2019-04-30T15:37:18.750Z,15.90
2019-04-30T15:39:42.074Z,17.57
2019-04-30T15:42:12.597Z,15.87
2019-04-30T15:44:45.895Z,16.53
2019-04-30T15:47:15.545Z,16.63
2019-04-30T15:49:45.110Z,17.27
2019-04-30T15:52:14.371Z,16.13
2019-04-30T15:54:43.735Z,16.70
2019-04-30T15:57:13.120Z,15.60
2019-04-30T15:59:46.452Z,15.97
2019-04-30T16:02:33.722Z,16.60
2019-04-30T16:05:20.914Z,16.77
2019-04-30T16:08:15.019Z,16.30
2019-04-30T16:11:01.921Z,15.67
2019-04-30T16:13:34.677Z,15.87
2019-04-30T16:16:03.908Z,15.53
2019-04-30T16:18:49.372Z,16.63
2019-04-30T16:21:19.399Z,15.87
2019-04-30T16:23:49.248Z,16.83
2019-04-30T16:26:18.502Z,15.10
2019-04-30T16:28:49.494Z,16.77
2019-04-30T16:31:20.392Z,16.97
2019-04-30T16:33:49.999Z,16.40
2019-04-30T16:36:19.418Z,16.63
2019-04-30T16:38:48.847Z,15.40
2019-04-30T16:41:30.669Z,16.10
2019-04-30T16:43:49.623Z,16.17
2019-04-30T16:46:19.203Z,17.27
2019-04-30T16:48:49.293Z,17.37
2019-04-30T16:51:18.993Z,16.30
2019-04-30T16:53:48.735Z,17.57
2019-04-30T16:56:18.628Z,17.17
2019-04-30T16:59:00.208Z,15.93
2019-04-30T17:01:30.621Z,16.87
2019-04-30T17:04:29.064Z,16.43
2019-04-30T17:07:18.772Z,18.53
2019-04-30T17:10:04.683Z,17.03
2019-04-30T17:12:42.517Z,17.70
2019-04-30T17:15:26.517Z,18.67
2019-04-30T17:17:56.071Z,16.93
2019-04-30T17:20:25.326Z,17.47
2019-04-30T17:22:54.725Z,17.60
2019-04-30T17:25:24.363Z,18.53
2019-04-30T17:27:53.716Z,18.33
2019-04-30T17:30:23.328Z,17.67
2019-04-30T17:32:52.528Z,18.70
2019-04-30T17:35:21.741Z,17.40
2019-04-30T17:37:51.044Z,19.13
2019-04-30T17:40:20.210Z,18.77
2019-04-30T17:42:49.704Z,17.73
2019-04-30T17:45:19.594Z,18.77
2019-04-30T17:47:48.945Z,18.03
2019-04-30T17:50:18.739Z,18.27
2019-04-30T17:52:48.363Z,18.53
2019-04-30T17:55:19.343Z,18.57
2019-04-30T17:57:48.783Z,18.70
2019-04-30T18:00:22.102Z,16.87
2019-04-30T18:02:49.848Z,17.37
2019-04-30T18:05:19.662Z,17.83
2019-04-30T18:07:49.778Z,18.87
2019-04-30T18:10:20.498Z,17.50
2019-04-30T18:12:49.804Z,17.37
2019-04-30T18:15:21.509Z,17.60
2019-04-30T18:17:57.797Z,16.87
2019-04-30T18:20:34.998Z,17.87
2019-04-30T18:23:23.571Z,18.47
2019-04-30T18:25:57.170Z,17.50
2019-04-30T18:28:26.554Z,17.90
2019-04-30T18:30:56.169Z,17.93
2019-04-30T18:33:25.377Z,18.53
2019-04-30T18:35:54.561Z,18.27
2019-04-30T18:38:24.291Z,19.03
2019-04-30T18:40:53.672Z,18.30
2019-04-30T18:43:23.051Z,18.90
2019-04-30T18:45:52.432Z,17.97
2019-04-30T18:48:21.768Z,18.70
2019-04-30T18:50:51.166Z,19.27
2019-04-30T18:53:24.348Z,18.93
2019-04-30T18:55:53.927Z,20.33
2019-04-30T18:58:23.204Z,20.30
2019-04-30T19:00:52.789Z,20.30
2019-04-30T19:03:22.600Z,19.57
2019-04-30T19:05:58.613Z,20.23
2019-04-30T19:08:33.114Z,20.27
2019-04-30T19:11:15.709Z,19.97
2019-04-30T19:13:59.227Z,20.50
2019-04-30T19:16:46.419Z,20.77
2019-04-30T19:19:20.571Z,23.10
2019-04-30T19:21:50.030Z,20.67
2019-04-30T19:24:19.724Z,21.53
2019-04-30T19:26:48.940Z,25.03
2019-04-30T19:29:18.455Z,23.30
2019-04-30T19:31:49.352Z,21.37
2019-04-30T19:34:18.473Z,20.70
2019-04-30T19:36:49.111Z,20.77
2019-04-30T19:39:19.506Z,19.97
2019-04-30T19:41:49.014Z,19.57
2019-04-30T19:44:20.631Z,19.90
2019-04-30T19:46:48.814Z,21.20
2019-04-30T19:49:19.221Z,20.93
2019-04-30T19:51:49.503Z,22.40
2019-04-30T19:54:19.248Z,21.07
2019-04-30T19:56:50.093Z,22.73
2019-04-30T19:59:19.396Z,23.10
2019-04-30T20:01:48.850Z,24.60
2019-04-30T20:04:18.544Z,23.53
2019-04-30T20:06:48.710Z,22.20
2019-04-30T20:09:19.415Z,26.00
2019-04-30T20:11:49.297Z,22.43
2019-04-30T20:14:18.776Z,21.03
2019-04-30T20:16:48.661Z,22.73
2019-04-30T20:19:17.944Z,22.97
2019-04-30T20:21:51.373Z,23.07
2019-04-30T20:24:19.116Z,23.50
2019-04-30T20:26:50.225Z,23.63
2019-04-30T20:29:19.487Z,24.27
2019-04-30T20:31:48.933Z,23.50
2019-04-30T20:34:19.203Z,23.97
2019-04-30T20:36:48.461Z,24.20
2019-04-30T20:39:36.489Z,23.00
2019-04-30T20:42:08.225Z,22.97
2019-04-30T20:44:39.987Z,22.33
2019-04-30T20:47:11.930Z,23.90
2019-04-30T20:49:42.105Z,23.20
2019-04-30T20:52:12.053Z,22.17
2019-04-30T20:54:42.284Z,23.33
2019-04-30T20:57:11.937Z,24.70
2019-04-30T20:59:41.155Z,23.83
2019-04-30T21:02:10.466Z,23.17
2019-04-30T21:04:41.543Z,25.07
2019-04-30T21:07:11.105Z,24.70
2019-04-30T21:09:40.713Z,24.53
2019-04-30T21:12:10.096Z,24.03
2019-04-30T21:14:40.602Z,23.30
2019-04-30T21:17:09.867Z,24.27
2019-04-30T21:19:40.661Z,25.17
2019-04-30T21:22:10.160Z,23.03
2019-04-30T21:24:39.358Z,25.17
2019-04-30T21:27:08.668Z,24.37
2019-04-30T21:29:39.137Z,24.93
2019-04-30T21:32:23.642Z,23.97
2019-04-30T21:35:15.052Z,25.77
2019-04-30T21:37:44.448Z,25.13
2019-04-30T21:40:14.036Z,23.77
2019-04-30T21:42:43.482Z,24.67
2019-04-30T21:45:12.650Z,24.73
2019-04-30T21:47:41.857Z,25.87
2019-04-30T21:50:11.295Z,26.27
2019-04-30T21:52:40.792Z,25.60
2019-04-30T21:55:10.111Z,24.90
2019-04-30T21:57:41.353Z,24.87
2019-04-30T22:00:11.706Z,25.50
2019-04-30T22:02:41.245Z,24.13
2019-04-30T22:05:11.314Z,24.70
2019-04-30T22:07:40.647Z,24.43
2019-04-30T22:10:10.031Z,24.83
2019-04-30T22:12:39.508Z,24.63
2019-04-30T22:15:08.951Z,24.77
2019-04-30T22:17:39.182Z,24.97
2019-04-30T22:20:09.587Z,23.00
2019-04-30T22:22:39.246Z,23.27
2019-04-30T22:25:10.119Z,24.27
2019-04-30T22:27:39.236Z,26.27
2019-04-30T22:30:08.975Z,24.03
2019-04-30T22:32:38.370Z,25.67
2019-04-30T22:35:29.467Z,24.83
2019-04-30T22:38:00.325Z,23.83
2019-04-30T22:40:31.636Z,22.80
2019-04-30T22:43:00.701Z,23.23
2019-04-30T22:45:35.112Z,24.53
2019-04-30T22:48:04.449Z,23.57
2019-04-30T22:50:33.914Z,23.20
2019-04-30T22:53:03.404Z,23.83
2019-04-30T22:55:32.761Z,23.87
2019-04-30T22:58:01.908Z,24.03
2019-04-30T23:00:43.148Z,22.27
2019-04-30T23:03:19.710Z,23.27
2019-04-30T23:05:51.309Z,23.07
2019-04-30T23:08:22.989Z,22.97
2019-04-30T23:10:52.293Z,23.03
2019-04-30T23:13:22.347Z,22.17
2019-04-30T23:15:54.006Z,24.13
2019-04-30T23:18:23.384Z,22.73
2019-04-30T23:20:53.176Z,23.80
2019-04-30T23:23:22.390Z,22.43
2019-04-30T23:25:51.924Z,23.57
2019-04-30T23:28:21.236Z,21.23
2019-04-30T23:30:50.407Z,23.83
2019-04-30T23:33:19.856Z,23.10
2019-04-30T23:35:49.317Z,21.87
2019-04-30T23:38:18.393Z,21.73
2019-04-30T23:40:49.132Z,22.70
2019-04-30T23:43:18.952Z,20.00
2019-04-30T23:45:48.412Z,21.53
2019-04-30T23:48:18.157Z,21.13
2019-04-30T23:50:47.345Z,21.60
2019-04-30T23:53:16.928Z,20.40
2019-04-30T23:55:46.355Z,20.67
2019-04-30T23:58:15.547Z,21.10
